createdAt,value
2022-09-10T00:14:59.337Z,13.10
2022-09-10T00:18:22.625Z,13.05
2022-09-10T00:20:55.946Z,12.99
2022-09-10T00:23:28.780Z,12.94
2022-09-10T00:25:57.929Z,12.91
2022-09-10T00:28:28.067Z,12.86
2022-09-10T00:30:55.619Z,12.84
2022-09-10T00:33:30.002Z,12.79
2022-09-10T00:36:08.462Z,12.68
2022-09-10T00:38:35.235Z,12.59
2022-09-10T00:41:05.207Z,12.49
2022-09-10T00:44:03.443Z,12.39
2022-09-10T00:46:51.588Z,12.25
2022-09-10T00:49:32.295Z,12.14
2022-09-10T00:52:01.752Z,12.04
2022-09-10T00:54:33.796Z,11.92
2022-09-10T00:57:10.670Z,11.88
2022-09-10T00:59:37.715Z,11.84
2022-09-10T01:02:04.916Z,11.84
2022-09-10T01:04:32.481Z,11.85
2022-09-10T01:07:01.203Z,11.86
2022-09-10T01:09:29.277Z,11.91
2022-09-10T01:12:21.937Z,11.92
2022-09-10T01:15:10.171Z,11.94
2022-09-10T01:18:19.936Z,11.96
2022-09-10T01:20:58.224Z,12.34
2022-09-10T01:24:05.540Z,12.50
2022-09-10T01:26:58.881Z,12.56
2022-09-10T01:29:39.320Z,12.61
2022-09-10T01:34:59.477Z,12.70
2022-09-10T01:37:31.481Z,12.74
2022-09-10T01:40:00.697Z,12.80
2022-09-10T01:42:28.500Z,12.84
2022-09-10T01:44:57.978Z,12.85
2022-09-10T01:48:11.370Z,12.89
2022-09-10T01:51:34.999Z,12.94
2022-09-10T01:54:39.325Z,12.96
2022-09-10T01:57:14.819Z,12.97
2022-09-10T02:00:11.426Z,13.00
2022-09-10T02:03:11.261Z,13.00
2022-09-10T02:05:43.555Z,12.97
2022-09-10T02:08:18.935Z,12.99
2022-09-10T02:11:01.675Z,13.02
2022-09-10T02:13:29.971Z,13.05
2022-09-10T02:15:57.676Z,13.10
2022-09-10T02:18:28.991Z,13.12
2022-09-10T02:20:58.668Z,13.11
2022-09-10T02:23:37.129Z,13.10
2022-09-10T02:26:03.953Z,13.08
2022-09-10T02:28:30.856Z,13.03
2022-09-10T02:30:57.734Z,13.01
2022-09-10T02:33:24.553Z,13.01
2022-09-10T02:35:52.157Z,13.00
2022-09-10T02:38:20.993Z,12.98
2022-09-10T02:40:52.004Z,12.98
2022-09-10T02:43:22.112Z,12.96
2022-09-10T02:45:49.086Z,12.94
2022-09-10T02:48:15.883Z,12.90
2022-09-10T02:50:46.252Z,12.89
2022-09-10T02:53:15.637Z,12.86
2022-09-10T02:55:47.340Z,12.86
2022-09-10T02:58:16.381Z,12.86
2022-09-10T03:00:47.615Z,12.89
2022-09-10T03:03:14.473Z,12.87
2022-09-10T03:05:41.637Z,12.87
2022-09-10T03:08:09.370Z,12.90
2022-09-10T03:10:36.560Z,12.98
2022-09-10T03:13:03.396Z,13.00
2022-09-10T03:15:30.100Z,13.03
2022-09-10T03:17:56.794Z,13.07
2022-09-10T03:20:23.601Z,13.09
2022-09-10T03:22:51.514Z,13.10
2022-09-10T03:25:22.805Z,13.13
2022-09-10T03:27:49.751Z,13.10
2022-09-10T03:30:16.765Z,13.11
2022-09-10T03:32:44.284Z,13.18
2022-09-10T03:37:56.047Z,13.20
2022-09-10T03:40:23.267Z,13.24
2022-09-10T03:42:49.987Z,13.27
2022-09-10T03:45:16.979Z,13.26
2022-09-10T03:47:44.086Z,13.26
2022-09-10T03:50:10.944Z,13.27
2022-09-10T03:52:37.583Z,13.29
2022-09-10T03:55:04.782Z,13.31
2022-09-10T03:57:31.509Z,13.33
2022-09-10T03:59:58.762Z,13.28
2022-09-10T04:02:25.456Z,13.26
2022-09-10T04:04:52.550Z,13.23
2022-09-10T04:07:19.244Z,13.23
2022-09-10T04:09:49.161Z,13.20
2022-09-10T04:12:16.825Z,13.19
2022-09-10T04:14:46.836Z,13.19
2022-09-10T04:17:18.109Z,13.20
2022-09-10T04:19:45.250Z,13.20
2022-09-10T04:22:11.999Z,13.23
2022-09-10T04:24:40.893Z,13.26
2022-09-10T04:27:07.553Z,13.24
2022-09-10T04:29:34.267Z,13.21
2022-09-10T04:32:00.962Z,13.22
2022-09-10T04:34:27.792Z,13.22
2022-09-10T04:36:54.478Z,13.21
2022-09-10T04:39:21.229Z,13.24
2022-09-10T04:41:50.166Z,13.25
2022-09-10T04:44:19.698Z,13.25
2022-09-10T04:46:51.613Z,13.26
2022-09-10T04:49:21.009Z,13.28
2022-09-10T04:51:47.780Z,13.33
2022-09-10T04:54:15.251Z,13.37
2022-09-10T04:56:43.774Z,13.42
2022-09-10T04:59:44.954Z,13.46
2022-09-10T05:02:17.599Z,13.47
2022-09-10T05:04:49.444Z,13.45
2022-09-10T05:07:21.732Z,13.47
2022-09-10T05:09:48.751Z,13.50
2022-09-10T05:12:17.986Z,13.54
2022-09-10T05:14:49.688Z,13.53
2022-09-10T05:17:17.005Z,13.51
2022-09-10T05:19:44.909Z,13.53
2022-09-10T05:22:11.773Z,13.52
2022-09-10T05:24:45.274Z,13.54
2022-09-10T05:27:12.271Z,13.54
2022-09-10T05:29:39.317Z,13.54
2022-09-10T05:32:12.554Z,13.55
2022-09-10T05:34:42.499Z,13.55
2022-09-10T05:37:09.680Z,13.53
2022-09-10T05:39:41.167Z,13.55
2022-09-10T05:42:08.678Z,13.56
2022-09-10T05:44:35.704Z,13.57
2022-09-10T05:47:02.415Z,13.61
2022-09-10T05:49:30.439Z,13.63
2022-09-10T05:51:58.057Z,13.61
2022-09-10T05:54:24.911Z,13.62
2022-09-10T05:56:54.250Z,13.64
2022-09-10T05:59:23.403Z,13.67
2022-09-10T06:01:52.110Z,13.67
2022-09-10T06:04:30.477Z,13.66
2022-09-10T06:07:16.097Z,13.66
2022-09-10T06:09:42.994Z,13.64
2022-09-10T06:12:24.729Z,13.67
2022-09-10T06:15:02.108Z,13.67
2022-09-10T06:17:38.478Z,13.71
2022-09-10T06:20:11.059Z,13.78
2022-09-10T06:22:43.607Z,13.83
2022-09-10T06:25:10.412Z,13.92
2022-09-10T06:27:49.985Z,13.98
2022-09-10T06:30:51.642Z,14.05
2022-09-10T06:33:41.458Z,14.16
2022-09-10T06:36:37.928Z,14.26
2022-09-10T06:39:04.822Z,14.35
2022-09-10T06:48:36.669Z,14.53
2022-09-10T06:50:38.077Z,14.55
2022-09-10T06:53:19.458Z,14.65
2022-09-10T07:07:20.272Z,15.12
2022-09-10T07:10:03.643Z,15.24
2022-09-10T07:12:30.648Z,15.23
2022-09-10T07:14:57.653Z,15.19
2022-09-10T07:17:29.842Z,15.22
2022-09-10T07:19:58.855Z,15.39
2022-09-10T07:22:35.118Z,15.48
2022-09-10T07:25:07.865Z,15.51
2022-09-10T07:31:41.148Z,15.50
2022-09-10T07:34:14.026Z,15.57
2022-09-10T07:36:46.749Z,15.55
2022-09-10T07:39:17.618Z,15.55
2022-09-10T07:41:46.607Z,15.44
2022-09-10T07:44:14.102Z,15.60
2022-09-10T07:46:55.377Z,15.59
2022-09-10T07:49:31.053Z,15.50
2022-09-10T07:52:26.216Z,15.42
2022-09-10T07:54:54.038Z,15.48
2022-09-10T07:57:31.760Z,15.50
2022-09-10T08:00:06.634Z,15.54
2022-09-10T08:02:39.841Z,15.43
2022-09-10T08:05:15.623Z,15.44
2022-09-10T08:08:09.440Z,15.44
2022-09-10T08:10:48.633Z,15.43
2022-09-10T08:13:39.927Z,15.43
2022-09-10T08:16:41.303Z,15.40
2022-09-10T08:19:43.006Z,15.47
2022-09-10T08:22:25.305Z,15.50
2022-09-10T08:25:01.512Z,15.50
2022-09-10T08:31:27.161Z,15.61
2022-09-10T08:34:06.759Z,15.65
2022-09-10T08:37:07.367Z,15.74
2022-09-10T08:43:36.277Z,15.85
2022-09-10T08:49:04.132Z,15.91
2022-09-10T08:51:49.505Z,15.97
2022-09-10T08:54:38.487Z,16.10
2022-09-10T08:57:21.513Z,16.17
2022-09-10T08:59:57.013Z,16.11
2022-09-10T09:03:22.159Z,16.11
2022-09-10T09:06:01.947Z,16.13
2022-09-10T09:08:34.795Z,16.15
2022-09-10T09:11:23.822Z,16.23
2022-09-10T09:14:36.770Z,16.24
2022-09-10T09:17:34.334Z,16.22
2022-09-10T09:20:17.658Z,16.19
2022-09-10T09:23:11.913Z,16.18
2022-09-10T09:26:01.655Z,16.06
2022-09-10T09:29:07.930Z,16.08
2022-09-10T09:31:47.688Z,16.09
2022-09-10T09:34:59.044Z,16.13
2022-09-10T09:37:52.375Z,16.29
2022-09-10T09:41:22.986Z,16.39
2022-09-10T09:44:23.718Z,16.44
2022-09-10T09:46:51.588Z,16.76
2022-09-10T09:53:13.070Z,17.31
2022-09-10T09:55:48.061Z,17.50
2022-09-10T10:01:28.303Z,18.27
2022-09-10T10:04:02.521Z,18.06
2022-09-10T10:12:25.513Z,18.15
2022-09-10T10:14:53.982Z,18.22
2022-09-10T10:23:40.079Z,18.87
2022-09-10T10:41:45.547Z,19.01
2022-09-10T10:58:18.717Z,19.27
2022-09-10T11:13:27.577Z,19.64
2022-09-10T11:16:10.963Z,20.14
2022-09-10T11:19:13.728Z,19.92
2022-09-10T11:21:40.373Z,20.10
2022-09-10T11:24:18.880Z,20.18
2022-09-10T11:26:56.633Z,20.28
2022-09-10T11:29:31.075Z,20.37
2022-09-10T11:32:06.843Z,20.30
2022-09-10T11:35:05.594Z,20.47
2022-09-10T11:37:56.915Z,20.54
2022-09-10T11:40:46.466Z,20.19
2022-09-10T11:43:51.019Z,20.37
2022-09-10T11:46:38.414Z,20.36
2022-09-10T11:49:21.464Z,20.33
2022-09-10T11:51:49.165Z,20.33
2022-09-10T11:54:34.886Z,19.97
2022-09-10T11:59:08.937Z,19.65
2022-09-10T12:02:38.188Z,20.10
2022-09-10T12:06:36.818Z,19.96
2022-09-10T12:09:19.957Z,19.93
2022-09-10T12:12:26.259Z,19.65
2022-09-10T12:14:53.959Z,19.53
2022-09-10T12:17:35.394Z,19.39
2022-09-10T12:20:15.774Z,19.72
2022-09-10T12:22:45.135Z,20.31
2022-09-10T12:25:18.488Z,20.90
2022-09-10T12:27:55.916Z,21.56
2022-09-10T12:30:29.109Z,21.48
2022-09-10T12:33:23.003Z,21.99
2022-09-10T12:35:51.590Z,22.35
2022-09-10T12:39:20.382Z,21.99
2022-09-10T12:41:47.038Z,22.27
2022-09-10T12:44:36.800Z,22.59
2022-09-10T12:47:15.231Z,22.86
2022-09-10T12:49:59.763Z,23.19
2022-09-10T12:52:42.613Z,22.91
2022-09-10T12:55:50.801Z,23.22
2022-09-10T12:59:04.506Z,22.70
2022-09-10T13:01:51.300Z,22.24
2022-09-10T13:04:37.882Z,21.95
2022-09-10T13:07:35.784Z,22.28
2022-09-10T13:10:24.068Z,22.11
2022-09-10T13:12:59.376Z,21.80
2022-09-10T13:15:35.324Z,21.37
2022-09-10T13:18:36.462Z,20.76
2022-09-10T13:21:48.009Z,21.47
2022-09-10T13:24:33.732Z,21.70
2022-09-10T13:27:12.551Z,21.34
2022-09-10T13:29:48.916Z,20.92
2022-09-10T13:32:42.976Z,20.57
2022-09-10T13:35:21.897Z,20.47
2022-09-10T13:39:03.680Z,20.45
2022-09-10T13:42:18.694Z,20.69
2022-09-10T13:45:21.757Z,21.20
2022-09-10T13:48:09.950Z,21.28
2022-09-10T13:51:25.406Z,22.01
2022-09-10T13:54:07.416Z,22.03
2022-09-10T13:56:36.681Z,22.23
2022-09-10T13:59:07.536Z,22.46
2022-09-10T14:01:55.881Z,22.89
2022-09-10T14:04:42.999Z,23.34
2022-09-10T14:07:22.808Z,22.79
2022-09-10T14:10:06.117Z,22.70
2022-09-10T14:12:36.070Z,23.32
2022-09-10T14:15:07.274Z,23.90
2022-09-10T14:17:52.098Z,24.36
2022-09-10T14:20:30.207Z,24.04
2022-09-10T14:23:06.605Z,23.95
2022-09-10T14:25:36.403Z,22.51
2022-09-10T14:28:25.093Z,22.35
2022-09-10T14:31:28.215Z,22.54
2022-09-10T14:34:02.201Z,22.30
2022-09-10T14:36:28.783Z,22.43
2022-09-10T14:39:21.001Z,22.15
2022-09-10T14:42:07.817Z,21.66
2022-09-10T14:44:42.387Z,20.75
2022-09-10T14:47:08.969Z,20.63
2022-09-10T14:49:40.654Z,20.72
2022-09-10T14:52:10.710Z,20.88
2022-09-10T14:54:39.927Z,21.17
2022-09-10T14:57:17.024Z,21.66
2022-09-10T14:59:49.178Z,21.81
2022-09-10T15:02:29.105Z,22.14
2022-09-10T15:04:55.953Z,22.16
2022-09-10T15:07:25.433Z,21.90
2022-09-10T15:09:53.714Z,21.44
2022-09-10T15:12:32.868Z,20.86
2022-09-10T15:14:59.932Z,20.45
2022-09-10T15:17:27.206Z,19.86
2022-09-10T15:19:55.249Z,19.76
2022-09-10T15:22:31.424Z,19.55
2022-09-10T15:25:10.439Z,19.22
2022-09-10T15:27:37.781Z,19.20
2022-09-10T15:30:06.410Z,19.12
2022-09-10T15:32:33.037Z,19.01
2022-09-10T15:34:59.750Z,18.90
2022-09-10T15:37:27.086Z,18.79
2022-09-10T15:39:54.582Z,18.63
2022-09-10T15:42:22.927Z,18.45
2022-09-10T15:44:49.911Z,18.40
2022-09-10T15:47:16.998Z,18.33
2022-09-10T15:49:43.727Z,18.20
2022-09-10T15:52:10.335Z,18.10
2022-09-10T15:54:36.926Z,18.09
2022-09-10T15:57:03.714Z,18.24
2022-09-10T15:59:30.289Z,18.34
2022-09-10T16:01:57.081Z,18.45
2022-09-10T16:04:24.985Z,18.43
2022-09-10T16:06:52.041Z,18.34
2022-09-10T16:09:18.950Z,18.31
2022-09-10T16:11:46.011Z,18.35
2022-09-10T16:14:18.688Z,18.31
2022-09-10T16:16:48.394Z,18.19
2022-09-10T16:19:15.284Z,18.10
2022-09-10T16:21:41.986Z,17.97
2022-09-10T16:24:12.985Z,17.84
2022-09-10T16:26:51.522Z,17.72
2022-09-10T16:29:19.911Z,17.61
2022-09-10T16:31:52.925Z,17.55
2022-09-10T16:34:26.603Z,17.49
2022-09-10T16:36:53.311Z,17.44
2022-09-10T16:39:23.061Z,17.40
2022-09-10T16:41:51.016Z,17.36
2022-09-10T16:44:25.288Z,17.27
2022-09-10T16:46:52.459Z,17.26
2022-09-10T16:49:22.689Z,17.24
2022-09-10T16:51:49.371Z,17.20
2022-09-10T16:54:20.948Z,17.14
2022-09-10T16:56:50.326Z,17.14
2022-09-10T16:59:23.929Z,17.12
2022-09-10T17:01:52.589Z,17.10
2022-09-10T17:04:28.183Z,17.06
2022-09-10T17:06:57.341Z,17.04
2022-09-10T17:09:24.866Z,16.98
2022-09-10T17:11:51.916Z,16.93
2022-09-10T17:14:20.027Z,16.89
2022-09-10T17:16:48.005Z,16.85
2022-09-10T17:19:25.971Z,16.77
2022-09-10T17:21:55.997Z,16.68
2022-09-10T17:24:26.423Z,16.62
2022-09-10T17:26:57.926Z,16.58
2022-09-10T17:29:26.225Z,16.52
2022-09-10T17:31:55.194Z,16.43
2022-09-10T17:34:24.223Z,16.35
2022-09-10T17:36:51.376Z,16.25
2022-09-10T17:39:18.573Z,16.16
2022-09-10T17:41:46.305Z,16.13
2022-09-10T17:44:14.502Z,16.05
2022-09-10T17:46:42.841Z,15.97
2022-09-10T17:49:14.137Z,15.90
2022-09-10T17:51:43.023Z,15.86
2022-09-10T17:54:10.937Z,15.81
2022-09-10T17:56:38.072Z,15.78
2022-09-10T17:59:06.127Z,15.81
2022-09-10T18:01:38.628Z,15.76
2022-09-10T18:04:08.664Z,15.74
2022-09-10T18:06:36.705Z,15.66
2022-09-10T18:09:06.590Z,15.59
2022-09-10T18:11:40.594Z,15.57
2022-09-10T18:14:13.471Z,15.59
2022-09-10T18:16:40.135Z,15.62
2022-09-10T18:19:14.373Z,15.62
2022-09-10T18:21:45.420Z,15.68
2022-09-10T18:24:25.024Z,15.71
2022-09-10T18:26:54.590Z,15.75
2022-09-10T18:29:29.888Z,15.76
2022-09-10T18:32:03.526Z,15.79
2022-09-10T18:34:31.305Z,15.81
2022-09-10T18:37:02.811Z,15.85
2022-09-10T18:39:32.702Z,15.84
2022-09-10T18:42:03.400Z,15.82
2022-09-10T18:44:34.357Z,15.74
2022-09-10T18:47:01.337Z,15.62
2022-09-10T18:49:29.652Z,15.53
2022-09-10T18:51:57.974Z,15.43
2022-09-10T18:54:29.427Z,15.36
2022-09-10T18:56:57.607Z,15.35
2022-09-10T18:59:26.116Z,15.34
2022-09-10T19:01:56.026Z,15.30
2022-09-10T19:04:28.542Z,15.28
2022-09-10T19:06:57.854Z,15.28
2022-09-10T19:09:29.338Z,15.32
2022-09-10T19:12:00.376Z,15.36
2022-09-10T19:14:34.411Z,15.38
2022-09-10T19:17:03.433Z,15.41
2022-09-10T19:19:35.248Z,15.37
2022-09-10T19:22:10.568Z,15.28
2022-09-10T19:24:54.517Z,15.24
2022-09-10T19:27:22.330Z,15.13
2022-09-10T19:29:49.766Z,15.08
2022-09-10T19:32:19.421Z,15.03
2022-09-10T19:34:50.284Z,14.97
2022-09-10T19:37:17.429Z,14.91
2022-09-10T19:39:46.597Z,14.91
2022-09-10T19:42:13.390Z,15.02
2022-09-10T19:44:40.020Z,15.07
2022-09-10T19:47:06.656Z,15.16
2022-09-10T19:49:34.179Z,15.21
2022-09-10T19:52:01.703Z,15.28
2022-09-10T19:54:30.324Z,15.31
2022-09-10T19:56:57.207Z,15.36
2022-09-10T19:59:24.126Z,15.32
2022-09-10T20:01:51.079Z,15.30
2022-09-10T20:04:22.861Z,15.22
2022-09-10T20:06:50.503Z,15.19
2022-09-10T20:09:17.927Z,15.18
2022-09-10T20:11:45.178Z,15.13
2022-09-10T20:14:14.736Z,15.13
2022-09-10T20:16:47.362Z,15.12
2022-09-10T20:19:18.621Z,15.10
2022-09-10T20:21:49.154Z,15.10
2022-09-10T20:24:20.136Z,15.10
2022-09-10T20:26:49.070Z,15.08
2022-09-10T20:29:19.599Z,15.13
2022-09-10T20:31:49.830Z,15.12
2022-09-10T20:34:22.704Z,15.14
2022-09-10T20:36:51.702Z,15.10
2022-09-10T20:39:25.260Z,15.06
2022-09-10T20:41:52.478Z,14.92
2022-09-10T20:44:23.093Z,14.88
2022-09-10T20:46:50.262Z,14.88
2022-09-10T20:49:17.871Z,14.90
2022-09-10T20:51:45.736Z,14.88
2022-09-10T20:54:19.221Z,14.91
2022-09-10T20:56:47.256Z,14.91
2022-09-10T20:59:17.959Z,14.98
2022-09-10T21:01:47.002Z,15.00
2022-09-10T21:04:15.331Z,15.01
2022-09-10T21:06:42.695Z,15.03
2022-09-10T21:09:09.526Z,15.00
2022-09-10T21:11:37.814Z,14.93
2022-09-10T21:14:07.498Z,14.97
2022-09-10T21:16:42.226Z,14.98
2022-09-10T21:19:17.905Z,15.07
2022-09-10T21:21:48.634Z,15.15
2022-09-10T21:24:22.467Z,15.23
2022-09-10T21:26:50.358Z,15.21
2022-09-10T21:29:20.834Z,15.17
2022-09-10T21:31:50.635Z,15.15
2022-09-10T21:34:17.451Z,15.14
2022-09-10T21:36:44.136Z,15.10
2022-09-10T21:39:17.513Z,15.09
2022-09-10T21:41:48.936Z,15.09
2022-09-10T21:44:22.961Z,15.10
2022-09-10T21:46:52.017Z,15.07
2022-09-10T21:49:22.161Z,15.08
2022-09-10T21:51:49.507Z,15.01
2022-09-10T21:54:21.038Z,14.98
2022-09-10T21:56:50.317Z,14.95
2022-09-10T21:59:17.358Z,14.85
2022-09-10T22:01:47.073Z,14.80
2022-09-10T22:04:19.986Z,14.74
2022-09-10T22:06:48.665Z,14.66
2022-09-10T22:09:16.931Z,14.61
2022-09-10T22:11:50.092Z,14.53
2022-09-10T22:14:24.343Z,14.45
2022-09-10T22:16:52.741Z,14.37
2022-09-10T22:19:25.798Z,14.31
2022-09-10T22:21:57.315Z,14.31
2022-09-10T22:24:25.928Z,14.28
2022-09-10T22:26:52.660Z,14.35
2022-09-10T22:29:20.515Z,14.41
2022-09-10T22:31:49.505Z,14.41
2022-09-10T22:34:18.431Z,14.42
2022-09-10T22:36:48.089Z,14.43
2022-09-10T22:39:21.232Z,14.49
2022-09-10T22:41:51.064Z,14.55
2022-09-10T22:44:19.257Z,14.62
2022-09-10T22:46:46.611Z,14.70
2022-09-10T22:49:15.942Z,14.84
2022-09-10T22:51:43.315Z,14.96
2022-09-10T22:54:11.253Z,15.00
2022-09-10T22:56:38.211Z,15.03
2022-09-10T22:59:07.062Z,15.05
2022-09-10T23:01:38.044Z,15.11
2022-09-10T23:04:07.885Z,15.17
2022-09-10T23:06:38.548Z,15.20
2022-09-10T23:09:15.995Z,15.23
2022-09-10T23:11:44.652Z,15.24
2022-09-10T23:14:19.863Z,15.22
2022-09-10T23:16:50.860Z,15.21
2022-09-10T23:19:22.863Z,15.22
2022-09-10T23:21:54.441Z,15.23
2022-09-10T23:24:26.213Z,15.18
2022-09-10T23:26:54.018Z,15.14
2022-09-10T23:29:23.256Z,15.12
2022-09-10T23:31:53.230Z,15.13
2022-09-10T23:34:21.276Z,15.08
2022-09-10T23:36:49.509Z,15.04
2022-09-10T23:39:23.232Z,14.96
2022-09-10T23:41:54.815Z,14.93
2022-09-10T23:44:21.646Z,14.95
2022-09-10T23:46:48.600Z,14.96
2022-09-10T23:49:15.917Z,15.00
2022-09-10T23:51:43.020Z,14.93
2022-09-10T23:54:12.760Z,14.92
2022-09-10T23:56:40.070Z,14.92
2022-09-10T23:59:07.402Z,14.90
